Stjerne skud på nattehimlen netop nu: Der er flotte stjerneskud igennem hele året, se mere her.
  • Kilde planetariet
  • Ny Tablet venlig Vejr3


  • Vejr3>N more information Vejr3>N


    3 timers nedbørs radar more information rain snow radar


    besøg nogle andre vejrsider:

    Template dokumentation
    og downloads

    And another site


    Select another period ( hide this area )

    enheder periode Custom range Directly to
    metrisk engelsk både
    dagens ugenligt månedlig årligt
    use both date-selectors for a custom range
    forgående dag
    With this date

    WeatherUnderground graphs for this period ( click here )


    dagens sammenfatning af tirsdag 31 marts 2020
    tid Temp. ( °C ) Dew pt. ( °C ) vind ( km/h ) fra vindstød ( km/h ) lufttryk ( hPa ) Humid.( % ) Rainrate ( cm ) solenergi ( W/m2 )
    høj8,4 -2,6 18,5 vest ( 203/330 ) 29,0 1030,3 79 - 281
    gennemsnit3,3 -5,0 3,4 vindstille #52/97 7,7 1029,3 57 - 79 #88/97
    lav-4,2 -7,7 -   0,0 1027,5 40 -  
    dagens Tabular details for tirsdag 31 marts 2020
    tid Temp. ( °C ) Dew pt. ( °C ) vind ( km/h ) fra vindstød ( km/h ) lufttryk ( hPa ) Humid.( % ) Rainrate ( cm ) solenergi ( W/m2 )
    00:00 -3,6 -7,2   vindstille   1029,6 76 - -
    00:05 -3,6 -7,4   vindstille   1029,6 75 - -
    00:10 -3,7 -7,5   vindstille   1029,6 75 - -
    00:15 -3,9 -7,7   vindstille   1029,6 75 - -
    00:20 -4,1 -7,6   vindstille   1029,7 77 - -
    00:25 -4,1 -7,5   vindstille   1029,6 77 - -
    00:30 -4,1 -7,5   vindstille   1029,6 77 - -
    00:35 -3,9 -7,4   vindstille   1029,7 77 - -
    00:40 -3,9 -7,3   vindstille   1029,7 77 - -
    00:45 -3,9 -7,4   vindstille   1029,8 77 - 2.3
    00:50 -3,9 -7,4   vindstille   1029,9 77 - 4.5
    00:55 -4,1 -7,5   vindstille   1029,9 77 - 6.8
    01:00 -4,1 -7,4   vindstille   1030,0 78 - 9.4
    01:05 -4,2 -7,4   vindstille   1030,1 78 - 12
    01:10 -4,2 -7,3   vindstille   1030,0 79 - 14.6
    01:15 -4,1 -7,2   vindstille   1030,2 79 - 17.1
    01:20 -4,0 -7,1   vindstille   1030,2 79 - 19.8
    01:25 -3,9 -7,2   vindstille   1030,3 78 - 22.3
    01:30 -3,8 -7,1   vindstille   1030,3 78 - 25
    01:35 -3,6 -6,8   vindstille   1030,2 78 - 27.7
    01:40 -3,3 -6,6   vindstille   1030,2 78 - 30.2
    01:45 -2,8 -6,1   vindstille   1030,2 78 - 32.3
    01:50 -2,1 -5,8   vindstille   1030,3 76 - 34.3
    01:55 -1,4 -5,6   vindstille   1030,3 73 - 36
    02:00 -0,8 -5,6   vindstille   1030,3 70 - 37.9
    02:05 -0,3 -5,5   vindstille   1030,2 68 - 39.9
    02:10 -0,1 -5,8   vindstille   1030,1 65 - 42.3
    02:15 0,1 -5,9   vindstille   1030,1 64 - 44.8
    02:20 0,2 -5,8   vindstille   1030,1 64 - 47.3
    02:25 0,2 -5,8   vindstille   1030,0 64 - 49.8
    02:30 0,3 -5,7   vindstille   1030,0 64 - 52.6
    02:35 0,3 -5,7   vindstille   1029,9 64 - 55.1
    02:40 0,4 -5,6   vindstille   1030,0 64 - 57.7
    02:45 0,6 -5,4   vindstille   1029,9 64 - 59.8
    02:50 0,9 -5,1   vindstille   1029,9 64 - 61.9
    02:55 1,2 -4,7   vindstille   1029,8 65 - 63.7
    03:00 1,6 -4,6   vindstille   1029,9 64 - 65.4
    03:05 1,9 -4,4   vindstille   1029,9 63 - 67.1
    03:10 2,4 -4,3   vindstille   1030,0 61 - 281
    03:15 3,0 -4,1   vindstille   1029,9 60 - 68.7
    03:20 3,6 -4,2   vindstille   1029,9 57 - 69.2
    03:25 4,1 -3,9   vindstille   1029,9 56 - 70
    03:30 4,4 -4,1   vindstille   1029,8 54 - 71.2
    03:35 4,7 -4,1   vindstille   1029,8 53 - 72.6
    03:40 4,8 -3,5 1,6 vest 1,6 1029,9 55 - 74.4
    03:45 5,1 -3,9   vindstille   1029,9 52 - 75.2
    03:50 5,5 -3,1   vindstille   1029,8 54 - 75.8
    03:55 5,8 -3,6 3,2 vnv   1029,7 51 - 76.7
    04:00 6,0 -3,7   vindstille 8,0 1029,8 50 - 78.2
    04:05 6,1 -3,6 4,8 vnv 16,1 1029,7 50 - 80
    04:10 6,2 -3,5   vindstille 6,4 1029,7 50 - 81.1
    04:15 6,4 -3,3 8,0 vnv 9,7 1029,6 50 - 82.3
    04:20 6,5 -3,2 1,6 vest 9,7 1029,5 50 - 83.8
    04:25 6,7 -3,3 4,8 vest 14,5 1029,6 49 - 84.8
    04:30 6,8 -3,5   vindstille 12,9 1029,5 48 - 86
    04:35 6,8 -3,8 4,8 vest 19,3 1029,5 47 - 88
    04:40 6,8 -4,1   vindstille   1029,4 46 - 89.5
    04:45 6,8 -4,0 8,0 vest 16,1 1029,4 46 - 90.8
    04:50 6,8 -4,3 4,8 vnv 12,9 1029,3 45 - 92.6
    04:55 6,8 -4,1 4,8 vest 14,5 1029,2 46 - 94.5
    05:00 6,8 -4,1   vindstille   1029,2 46 - 96
    05:05 6,9 -3,7 4,8 vest 9,7 1029,1 47 - 97
    05:10 6,9 -3,9 8,0 vest 19,3 1029,0 46 - 97.8
    05:15 6,9 -3,9 14,5 vnv 22,5 1029,0 46 - 99.5
    05:20 6,9 -3,9 3,2 vest 4,8 1028,9 46 - 100.9
    05:25 7,1 -3,2 4,8 vest 11,3 1028,9 48 - 101.6
    05:30 7,3 -3,3 1,6 vest 19,3 1028,8 47 - 101.5
    05:35 7,3 -3,8 11,3 vest 19,3 1028,9 45 - 102.4
    05:40 7,4 -3,8 1,6 vnv 9,7 1028,8 45 - 103.3
    05:45 7,4 -4,4 9,7 vnv 24,1 1028,7 43 - 104.6
    05:50 7,3 -4,5 4,8 vnv 11,3 1028,6 43 - 106
    05:55 7,4 -4,4 9,7 vnv 19,3 1028,6 43 - 106.3
    06:00 7,4 -5,0 4,8 vest 19,3 1028,6 41 - 106.8
    06:05 7,4 -5,1 3,2 vest 11,3 1028,5 41 - 108.4
    06:10 7,3 -5,1 8,0 vest 22,5 1028,6 41 - 109.2
    06:15 7,3 -5,4 3,2 vest 1,6 1028,5 40 - 110.3
    06:20 7,3 -5,4 4,8 vest 16,1 1028,5 40 - 111
    06:25 7,2 -5,5   vindstille   1028,4 40 - 112
    06:30 7,4 -4,1 4,8 vsv 16,1 1028,3 44 - 111.1
    06:35 7,5 -4,6 4,8 vest 6,4 1028,3 42 - 111.2
    06:40 7,5 -4,3 16,1 vest 29,0 1028,2 43 - 111.5
    06:45 7,6 -3,9 8,0 vnv 14,5 1028,1 44 - 111.5
    06:50 7,6 -4,5 14,5 vnv 20,9 1028,0 42 - 111.5
    06:55 7,6 -4,8 9,7 vest 20,9 1028,0 41 - 111.8
    07:00 7,6 -4,9 8,0 vest 12,9 1027,9 41 - 112.4
    07:05 7,6 -4,9 12,9 vnv 25,7 1027,8 41 - 112.4
    07:10 7,6 -4,2 12,9 vnv 22,5 1027,9 43 - 112.1
    07:15 7,7 -4,2 8,0 vest 19,3 1027,8 43 - 111.6
    07:20 7,7 -3,8 12,9 vsv 19,3 1027,7 44 - 111.6
    07:25 7,8 -3,7 9,7 vest 16,1 1027,7 44 - 110.7
    07:30 7,9 -3,3 3,2 vest 16,1 1027,7 45 - 109.8
    07:35 8,0 -2,9 16,1 vest 25,7 1027,6 46 - 108.7
    07:40 8,1 -3,1 1,6 vest 20,9 1027,7 45 - 107.3
    07:45 8,2 -3,3 3,2 vest 19,3 1027,6 44 - 106.4
    07:50 8,4 -2,9 18,5 vest 12,9 1027,5 45 - 104.9
    07:55 8,4 -2,6 11,3 vest 25,7 1027,5 46 - 104.8
    08:00 8,3 -2,9 9,7 vest 16,1 1027,5 45 - 104.3
    dagens sammenfatning af tirsdag 31 marts 2020
    tid Temp. ( °C ) Dew pt. ( °C ) vind ( km/h ) fra vindstød ( km/h ) lufttryk ( hPa ) Humid.( % ) Rainrate ( cm ) solenergi ( W/m2 )
    høj8,4 -2,6 18,5 vest ( 203/330 ) 29,0 1030,3 79 - 281
    gennemsnit3,3 -5,0 3,4 vindstille #52/97 7,7 1029,3 57 - 79 #88/97
    lav-4,2 -7,7 -   0,0 1027,5 40 -  
    dagens Tabular details for tirsdag 31 marts 2020
    tid Temp. ( °C ) Dew pt. ( °C ) vind ( km/h ) fra vindstød ( km/h ) lufttryk ( hPa ) Humid.( % ) Rainrate ( cm ) solenergi ( W/m2 )
    00:00 -3,6 -7,2   vindstille   1029,6 76 - -
    00:05 -3,6 -7,4   vindstille   1029,6 75 - -
    00:10 -3,7 -7,5   vindstille   1029,6 75 - -
    00:15 -3,9 -7,7   vindstille   1029,6 75 - -
    00:20 -4,1 -7,6   vindstille   1029,7 77 - -
    00:25 -4,1 -7,5   vindstille   1029,6 77 - -
    00:30 -4,1 -7,5   vindstille   1029,6 77 - -
    00:35 -3,9 -7,4   vindstille   1029,7 77 - -
    00:40 -3,9 -7,3   vindstille   1029,7 77 - -
    00:45 -3,9 -7,4   vindstille   1029,8 77 - 2.3
    00:50 -3,9 -7,4   vindstille   1029,9 77 - 4.5
    00:55 -4,1 -7,5   vindstille   1029,9 77 - 6.8
    01:00 -4,1 -7,4   vindstille   1030,0 78 - 9.4
    01:05 -4,2 -7,4   vindstille   1030,1 78 - 12
    01:10 -4,2 -7,3   vindstille   1030,0 79 - 14.6
    01:15 -4,1 -7,2   vindstille   1030,2 79 - 17.1
    01:20 -4,0 -7,1   vindstille   1030,2 79 - 19.8
    01:25 -3,9 -7,2   vindstille   1030,3 78 - 22.3
    01:30 -3,8 -7,1   vindstille   1030,3 78 - 25
    01:35 -3,6 -6,8   vindstille   1030,2 78 - 27.7
    01:40 -3,3 -6,6   vindstille   1030,2 78 - 30.2
    01:45 -2,8 -6,1   vindstille   1030,2 78 - 32.3
    01:50 -2,1 -5,8   vindstille   1030,3 76 - 34.3
    01:55 -1,4 -5,6   vindstille   1030,3 73 - 36
    02:00 -0,8 -5,6   vindstille   1030,3 70 - 37.9
    02:05 -0,3 -5,5   vindstille   1030,2 68 - 39.9
    02:10 -0,1 -5,8   vindstille   1030,1 65 - 42.3
    02:15 0,1 -5,9   vindstille   1030,1 64 - 44.8
    02:20 0,2 -5,8   vindstille   1030,1 64 - 47.3
    02:25 0,2 -5,8   vindstille   1030,0 64 - 49.8
    02:30 0,3 -5,7   vindstille   1030,0 64 - 52.6
    02:35 0,3 -5,7   vindstille   1029,9 64 - 55.1
    02:40 0,4 -5,6   vindstille   1030,0 64 - 57.7
    02:45 0,6 -5,4   vindstille   1029,9 64 - 59.8
    02:50 0,9 -5,1   vindstille   1029,9 64 - 61.9
    02:55 1,2 -4,7   vindstille   1029,8 65 - 63.7
    03:00 1,6 -4,6   vindstille   1029,9 64 - 65.4
    03:05 1,9 -4,4   vindstille   1029,9 63 - 67.1
    03:10 2,4 -4,3   vindstille   1030,0 61 - 281
    03:15 3,0 -4,1   vindstille   1029,9 60 - 68.7
    03:20 3,6 -4,2   vindstille   1029,9 57 - 69.2
    03:25 4,1 -3,9   vindstille   1029,9 56 - 70
    03:30 4,4 -4,1   vindstille   1029,8 54 - 71.2
    03:35 4,7 -4,1   vindstille   1029,8 53 - 72.6
    03:40 4,8 -3,5 1,6 vest 1,6 1029,9 55 - 74.4
    03:45 5,1 -3,9   vindstille   1029,9 52 - 75.2
    03:50 5,5 -3,1   vindstille   1029,8 54 - 75.8
    03:55 5,8 -3,6 3,2 vnv   1029,7 51 - 76.7
    04:00 6,0 -3,7   vindstille 8,0 1029,8 50 - 78.2
    04:05 6,1 -3,6 4,8 vnv 16,1 1029,7 50 - 80
    04:10 6,2 -3,5   vindstille 6,4 1029,7 50 - 81.1
    04:15 6,4 -3,3 8,0 vnv 9,7 1029,6 50 - 82.3
    04:20 6,5 -3,2 1,6 vest 9,7 1029,5 50 - 83.8
    04:25 6,7 -3,3 4,8 vest 14,5 1029,6 49 - 84.8
    04:30 6,8 -3,5   vindstille 12,9 1029,5 48 - 86
    04:35 6,8 -3,8 4,8 vest 19,3 1029,5 47 - 88
    04:40 6,8 -4,1   vindstille   1029,4 46 - 89.5
    04:45 6,8 -4,0 8,0 vest 16,1 1029,4 46 - 90.8
    04:50 6,8 -4,3 4,8 vnv 12,9 1029,3 45 - 92.6
    04:55 6,8 -4,1 4,8 vest 14,5 1029,2 46 - 94.5
    05:00 6,8 -4,1   vindstille   1029,2 46 - 96
    05:05 6,9 -3,7 4,8 vest 9,7 1029,1 47 - 97
    05:10 6,9 -3,9 8,0 vest 19,3 1029,0 46 - 97.8
    05:15 6,9 -3,9 14,5 vnv 22,5 1029,0 46 - 99.5
    05:20 6,9 -3,9 3,2 vest 4,8 1028,9 46 - 100.9
    05:25 7,1 -3,2 4,8 vest 11,3 1028,9 48 - 101.6
    05:30 7,3 -3,3 1,6 vest 19,3 1028,8 47 - 101.5
    05:35 7,3 -3,8 11,3 vest 19,3 1028,9 45 - 102.4
    05:40 7,4 -3,8 1,6 vnv 9,7 1028,8 45 - 103.3
    05:45 7,4 -4,4 9,7 vnv 24,1 1028,7 43 - 104.6
    05:50 7,3 -4,5 4,8 vnv 11,3 1028,6 43 - 106
    05:55 7,4 -4,4 9,7 vnv 19,3 1028,6 43 - 106.3
    06:00 7,4 -5,0 4,8 vest 19,3 1028,6 41 - 106.8
    06:05 7,4 -5,1 3,2 vest 11,3 1028,5 41 - 108.4
    06:10 7,3 -5,1 8,0 vest 22,5 1028,6 41 - 109.2
    06:15 7,3 -5,4 3,2 vest 1,6 1028,5 40 - 110.3
    06:20 7,3 -5,4 4,8 vest 16,1 1028,5 40 - 111
    06:25 7,2 -5,5   vindstille   1028,4 40 - 112
    06:30 7,4 -4,1 4,8 vsv 16,1 1028,3 44 - 111.1
    06:35 7,5 -4,6 4,8 vest 6,4 1028,3 42 - 111.2
    06:40 7,5 -4,3 16,1 vest 29,0 1028,2 43 - 111.5
    06:45 7,6 -3,9 8,0 vnv 14,5 1028,1 44 - 111.5
    06:50 7,6 -4,5 14,5 vnv 20,9 1028,0 42 - 111.5
    06:55 7,6 -4,8 9,7 vest 20,9 1028,0 41 - 111.8
    07:00 7,6 -4,9 8,0 vest 12,9 1027,9 41 - 112.4
    07:05 7,6 -4,9 12,9 vnv 25,7 1027,8 41 - 112.4
    07:10 7,6 -4,2 12,9 vnv 22,5 1027,9 43 - 112.1
    07:15 7,7 -4,2 8,0 vest 19,3 1027,8 43 - 111.6
    07:20 7,7 -3,8 12,9 vsv 19,3 1027,7 44 - 111.6
    07:25 7,8 -3,7 9,7 vest 16,1 1027,7 44 - 110.7
    07:30 7,9 -3,3 3,2 vest 16,1 1027,7 45 - 109.8
    07:35 8,0 -2,9 16,1 vest 25,7 1027,6 46 - 108.7
    07:40 8,1 -3,1 1,6 vest 20,9 1027,7 45 - 107.3
    07:45 8,2 -3,3 3,2 vest 19,3 1027,6 44 - 106.4
    07:50 8,4 -2,9 18,5 vest 12,9 1027,5 45 - 104.9
    07:55 8,4 -2,6 11,3 vest 25,7 1027,5 46 - 104.8
    08:00 8,3 -2,9 9,7 vest 16,1 1027,5 45 - 104.3

    Download your copy of this data-set  here

    Our weather-data as stored at Weather Underground. script udviklet af Jim McMurry. tilpasset til dette template Leuven-Template.eu

    du finder også vores vejrinformationer på:

    European Weather Network

    Weather Underground

    AWEKAS

    WeatherlinkIP

    Citizen Weather Observer Program (CWOP)

    udstyr som vi anvender:

    vejrstation
    Davis VP2+

    vejrprogram
    Weather Display

    vejrserver
    Dell E6400

    hjemmeside host
    Webhosting.dk

    Davis VP2+

    Weather Display

    Dell E6400

    Webhosting.dk